sensor_id;sensor_type;location;lat;lon;timestamp;P1;durP1;ratioP1;P2;durP2;ratioP2
9771;SDS011;4925;52.588;13.370;2023-06-24T00:01:48;9.07;;;7.95;;
9771;SDS011;4925;52.588;13.370;2023-06-24T00:04:14;8.43;;;7.60;;
9771;SDS011;4925;52.588;13.370;2023-06-24T00:06:41;9.43;;;8.05;;
9771;SDS011;4925;52.588;13.370;2023-06-24T00:09:07;9.65;;;8.60;;
9771;SDS011;4925;52.588;13.370;2023-06-24T00:11:33;9.88;;;8.45;;
9771;SDS011;4925;52.588;13.370;2023-06-24T00:13:58;10.15;;;9.15;;
9771;SDS011;4925;52.588;13.370;2023-06-24T00:16:24;14.73;;;9.48;;
9771;SDS011;4925;52.588;13.370;2023-06-24T00:18:55;9.63;;;8.63;;
9771;SDS011;4925;52.588;13.370;2023-06-24T00:21:25;10.25;;;9.32;;
9771;SDS011;4925;52.588;13.370;2023-06-24T00:23:58;12.15;;;8.75;;
9771;SDS011;4925;52.588;13.370;2023-06-24T00:26:24;13.57;;;9.27;;
9771;SDS011;4925;52.588;13.370;2023-06-24T00:28:50;11.82;;;9.82;;
9771;SDS011;4925;52.588;13.370;2023-06-24T00:31:16;13.35;;;10.43;;
9771;SDS011;4925;52.588;13.370;2023-06-24T00:33:42;12.18;;;10.27;;
9771;SDS011;4925;52.588;13.370;2023-06-24T00:36:08;12.73;;;9.73;;
9771;SDS011;4925;52.588;13.370;2023-06-24T00:38:36;14.48;;;10.80;;
9771;SDS011;4925;52.588;13.370;2023-06-24T00:41:03;16.73;;;10.68;;
9771;SDS011;4925;52.588;13.370;2023-06-24T00:43:29;17.05;;;10.77;;
9771;SDS011;4925;52.588;13.370;2023-06-24T00:45:55;16.35;;;10.48;;
9771;SDS011;4925;52.588;13.370;2023-06-24T00:48:21;12.40;;;10.60;;
9771;SDS011;4925;52.588;13.370;2023-06-24T00:50:48;15.77;;;10.63;;
9771;SDS011;4925;52.588;13.370;2023-06-24T00:53:15;12.55;;;11.25;;
9771;SDS011;4925;52.588;13.370;2023-06-24T00:55:42;18.38;;;11.75;;
9771;SDS011;4925;52.588;13.370;2023-06-24T00:58:10;14.20;;;11.82;;
9771;SDS011;4925;52.588;13.370;2023-06-24T01:00:42;16.35;;;11.35;;
9771;SDS011;4925;52.588;13.370;2023-06-24T01:03:11;12.60;;;11.40;;
9771;SDS011;4925;52.588;13.370;2023-06-24T01:05:41;12.40;;;11.30;;
9771;SDS011;4925;52.588;13.370;2023-06-24T01:08:09;13.88;;;12.48;;
9771;SDS011;4925;52.588;13.370;2023-06-24T01:10:40;13.43;;;12.00;;
9771;SDS011;4925;52.588;13.370;2023-06-24T01:13:07;14.50;;;11.48;;
9771;SDS011;4925;52.588;13.370;2023-06-24T01:15:33;14.07;;;11.10;;
9771;SDS011;4925;52.588;13.370;2023-06-24T01:21:03;12.53;;;11.27;;
9771;SDS011;4925;52.588;13.370;2023-06-24T01:23:51;13.25;;;11.90;;
9771;SDS011;4925;52.588;13.370;2023-06-24T01:29:26;12.65;;;11.38;;
9771;SDS011;4925;52.588;13.370;2023-06-24T01:32:19;13.07;;;11.25;;
9771;SDS011;4925;52.588;13.370;2023-06-24T01:37:30;13.10;;;11.63;;
9771;SDS011;4925;52.588;13.370;2023-06-24T01:40:10;14.65;;;11.55;;
9771;SDS011;4925;52.588;13.370;2023-06-24T01:42:37;12.07;;;10.70;;
9771;SDS011;4925;52.588;13.370;2023-06-24T01:45:09;13.02;;;10.23;;
9771;SDS011;4925;52.588;13.370;2023-06-24T01:47:38;13.05;;;11.27;;
9771;SDS011;4925;52.588;13.370;2023-06-24T01:50:07;12.88;;;10.02;;
9771;SDS011;4925;52.588;13.370;2023-06-24T01:52:36;12.18;;;9.73;;
9771;SDS011;4925;52.588;13.370;2023-06-24T01:55:07;12.98;;;11.40;;
9771;SDS011;4925;52.588;13.370;2023-06-24T01:57:35;16.73;;;11.63;;
9771;SDS011;4925;52.588;13.370;2023-06-24T02:00:03;11.88;;;10.05;;
9771;SDS011;4925;52.588;13.370;2023-06-24T02:02:32;13.40;;;11.05;;
9771;SDS011;4925;52.588;13.370;2023-06-24T02:04:59;11.95;;;10.68;;
9771;SDS011;4925;52.588;13.370;2023-06-24T02:07:28;13.18;;;10.57;;
9771;SDS011;4925;52.588;13.370;2023-06-24T02:09:55;11.25;;;10.20;;
9771;SDS011;4925;52.588;13.370;2023-06-24T02:12:21;11.63;;;10.23;;
9771;SDS011;4925;52.588;13.370;2023-06-24T02:14:49;11.63;;;10.50;;
9771;SDS011;4925;52.588;13.370;2023-06-24T02:17:17;12.27;;;10.18;;
9771;SDS011;4925;52.588;13.370;2023-06-24T02:19:45;12.55;;;10.60;;
9771;SDS011;4925;52.588;13.370;2023-06-24T02:22:13;13.23;;;10.60;;
9771;SDS011;4925;52.588;13.370;2023-06-24T02:24:39;14.07;;;10.45;;
9771;SDS011;4925;52.588;13.370;2023-06-24T02:27:06;12.15;;;9.48;;
9771;SDS011;4925;52.588;13.370;2023-06-24T02:29:33;12.57;;;10.18;;
9771;SDS011;4925;52.588;13.370;2023-06-24T02:32:01;12.43;;;9.85;;
9771;SDS011;4925;52.588;13.370;2023-06-24T02:34:27;14.63;;;9.93;;
9771;SDS011;4925;52.588;13.370;2023-06-24T02:36:54;11.10;;;10.00;;
9771;SDS011;4925;52.588;13.370;2023-06-24T02:39:19;11.82;;;10.02;;
9771;SDS011;4925;52.588;13.370;2023-06-24T02:41:45;12.02;;;10.45;;
9771;SDS011;4925;52.588;13.370;2023-06-24T02:44:13;10.43;;;9.35;;
9771;SDS011;4925;52.588;13.370;2023-06-24T02:46:39;12.35;;;9.43;;
9771;SDS011;4925;52.588;13.370;2023-06-24T02:49:07;11.52;;;9.48;;
9771;SDS011;4925;52.588;13.370;2023-06-24T02:51:34;10.53;;;9.20;;
9771;SDS011;4925;52.588;13.370;2023-06-24T02:54:01;11.98;;;9.48;;
9771;SDS011;4925;52.588;13.370;2023-06-24T02:56:28;12.38;;;9.55;;
9771;SDS011;4925;52.588;13.370;2023-06-24T02:58:53;13.23;;;9.17;;
9771;SDS011;4925;52.588;13.370;2023-06-24T03:01:19;10.00;;;9.07;;
9771;SDS011;4925;52.588;13.370;2023-06-24T03:03:49;8.93;;;8.13;;
9771;SDS011;4925;52.588;13.370;2023-06-24T03:06:20;10.13;;;8.87;;
9771;SDS011;4925;52.588;13.370;2023-06-24T03:08:47;11.27;;;9.40;;
9771;SDS011;4925;52.588;13.370;2023-06-24T03:11:16;9.30;;;8.15;;
9771;SDS011;4925;52.588;13.370;2023-06-24T03:13:42;9.27;;;8.48;;
9771;SDS011;4925;52.588;13.370;2023-06-24T03:16:08;9.15;;;8.25;;
9771;SDS011;4925;52.588;13.370;2023-06-24T03:18:46;10.63;;;9.35;;
9771;SDS011;4925;52.588;13.370;2023-06-24T03:21:11;10.00;;;8.30;;
9771;SDS011;4925;52.588;13.370;2023-06-24T03:23:37;9.48;;;8.57;;
9771;SDS011;4925;52.588;13.370;2023-06-24T03:26:04;14.60;;;9.03;;
9771;SDS011;4925;52.588;13.370;2023-06-24T03:28:32;9.38;;;8.55;;
9771;SDS011;4925;52.588;13.370;2023-06-24T03:30:58;11.68;;;8.57;;
9771;SDS011;4925;52.588;13.370;2023-06-24T03:33:24;11.63;;;9.10;;
9771;SDS011;4925;52.588;13.370;2023-06-24T03:35:51;10.48;;;8.88;;
9771;SDS011;4925;52.588;13.370;2023-06-24T03:38:17;9.93;;;8.93;;
9771;SDS011;4925;52.588;13.370;2023-06-24T03:40:43;11.52;;;8.00;;
9771;SDS011;4925;52.588;13.370;2023-06-24T03:43:09;7.90;;;7.20;;
9771;SDS011;4925;52.588;13.370;2023-06-24T03:45:34;10.85;;;7.70;;
9771;SDS011;4925;52.588;13.370;2023-06-24T03:48:00;9.40;;;8.57;;
9771;SDS011;4925;52.588;13.370;2023-06-24T03:50:26;10.07;;;9.05;;
9771;SDS011;4925;52.588;13.370;2023-06-24T03:52:52;10.20;;;9.05;;
9771;SDS011;4925;52.588;13.370;2023-06-24T03:55:17;10.48;;;8.77;;
9771;SDS011;4925;52.588;13.370;2023-06-24T03:57:43;10.98;;;8.95;;
9771;SDS011;4925;52.588;13.370;2023-06-24T04:00:09;12.77;;;9.05;;
9771;SDS011;4925;52.588;13.370;2023-06-24T04:02:41;9.05;;;7.90;;
9771;SDS011;4925;52.588;13.370;2023-06-24T04:05:07;9.02;;;8.15;;
9771;SDS011;4925;52.588;13.370;2023-06-24T04:07:34;10.90;;;8.38;;
9771;SDS011;4925;52.588;13.370;2023-06-24T04:10:01;11.32;;;9.43;;
9771;SDS011;4925;52.588;13.370;2023-06-24T04:12:29;10.90;;;8.98;;
9771;SDS011;4925;52.588;13.370;2023-06-24T04:14:54;12.48;;;8.77;;
9771;SDS011;4925;52.588;13.370;2023-06-24T04:17:20;9.38;;;8.48;;
9771;SDS011;4925;52.588;13.370;2023-06-24T04:19:46;9.85;;;8.95;;
9771;SDS011;4925;52.588;13.370;2023-06-24T04:22:12;9.50;;;8.35;;
9771;SDS011;4925;52.588;13.370;2023-06-24T04:24:38;9.53;;;8.30;;
9771;SDS011;4925;52.588;13.370;2023-06-24T04:27:03;9.95;;;9.05;;
9771;SDS011;4925;52.588;13.370;2023-06-24T04:29:31;8.98;;;8.07;;
9771;SDS011;4925;52.588;13.370;2023-06-24T04:31:56;12.60;;;8.70;;
9771;SDS011;4925;52.588;13.370;2023-06-24T04:34:22;12.07;;;8.55;;
9771;SDS011;4925;52.588;13.370;2023-06-24T04:36:48;9.68;;;8.82;;
9771;SDS011;4925;52.588;13.370;2023-06-24T04:39:14;12.95;;;9.13;;
9771;SDS011;4925;52.588;13.370;2023-06-24T04:41:39;11.75;;;9.27;;
9771;SDS011;4925;52.588;13.370;2023-06-24T04:44:05;10.43;;;9.20;;
9771;SDS011;4925;52.588;13.370;2023-06-24T04:46:30;10.13;;;9.07;;
9771;SDS011;4925;52.588;13.370;2023-06-24T04:48:57;10.05;;;8.68;;
9771;SDS011;4925;52.588;13.370;2023-06-24T04:51:23;9.32;;;8.18;;
9771;SDS011;4925;52.588;13.370;2023-06-24T04:53:49;9.65;;;8.70;;
9771;SDS011;4925;52.588;13.370;2023-06-24T04:56:14;13.38;;;9.63;;
9771;SDS011;4925;52.588;13.370;2023-06-24T04:58:40;11.40;;;8.75;;
9771;SDS011;4925;52.588;13.370;2023-06-24T05:01:06;9.43;;;8.52;;
9771;SDS011;4925;52.588;13.370;2023-06-24T05:03:31;10.45;;;8.63;;
9771;SDS011;4925;52.588;13.370;2023-06-24T05:05:57;11.45;;;8.52;;
9771;SDS011;4925;52.588;13.370;2023-06-24T05:08:23;10.00;;;8.98;;
9771;SDS011;4925;52.588;13.370;2023-06-24T05:10:49;10.57;;;8.13;;
9771;SDS011;4925;52.588;13.370;2023-06-24T05:13:15;9.88;;;8.27;;
9771;SDS011;4925;52.588;13.370;2023-06-24T05:15:40;9.05;;;8.15;;
9771;SDS011;4925;52.588;13.370;2023-06-24T05:18:06;12.20;;;9.10;;
9771;SDS011;4925;52.588;13.370;2023-06-24T05:20:32;9.85;;;8.27;;
9771;SDS011;4925;52.588;13.370;2023-06-24T05:22:57;9.90;;;8.05;;
9771;SDS011;4925;52.588;13.370;2023-06-24T05:25:23;10.05;;;8.48;;
9771;SDS011;4925;52.588;13.370;2023-06-24T05:27:49;8.60;;;7.80;;
9771;SDS011;4925;52.588;13.370;2023-06-24T05:30:14;9.55;;;8.07;;
9771;SDS011;4925;52.588;13.370;2023-06-24T05:32:40;9.23;;;8.20;;
9771;SDS011;4925;52.588;13.370;2023-06-24T05:35:06;11.48;;;8.55;;
9771;SDS011;4925;52.588;13.370;2023-06-24T05:37:32;11.93;;;9.10;;
9771;SDS011;4925;52.588;13.370;2023-06-24T05:39:58;11.05;;;9.30;;
9771;SDS011;4925;52.588;13.370;2023-06-24T05:42:26;10.02;;;8.85;;
9771;SDS011;4925;52.588;13.370;2023-06-24T05:44:52;12.05;;;9.02;;
9771;SDS011;4925;52.588;13.370;2023-06-24T05:47:18;11.18;;;8.85;;
9771;SDS011;4925;52.588;13.370;2023-06-24T05:49:44;14.63;;;8.32;;
9771;SDS011;4925;52.588;13.370;2023-06-24T05:52:11;9.07;;;7.95;;
9771;SDS011;4925;52.588;13.370;2023-06-24T05:54:37;10.98;;;8.18;;
9771;SDS011;4925;52.588;13.370;2023-06-24T05:57:02;11.80;;;8.45;;
9771;SDS011;4925;52.588;13.370;2023-06-24T05:59:31;10.65;;;8.00;;
9771;SDS011;4925;52.588;13.370;2023-06-24T06:01:57;9.13;;;7.82;;
9771;SDS011;4925;52.588;13.370;2023-06-24T06:04:23;9.18;;;8.27;;
9771;SDS011;4925;52.588;13.370;2023-06-24T06:06:48;9.20;;;8.00;;
9771;SDS011;4925;52.588;13.370;2023-06-24T06:09:14;13.45;;;8.35;;
9771;SDS011;4925;52.588;13.370;2023-06-24T06:11:40;9.20;;;7.22;;
9771;SDS011;4925;52.588;13.370;2023-06-24T06:14:05;10.35;;;7.97;;
9771;SDS011;4925;52.588;13.370;2023-06-24T06:16:33;9.80;;;6.80;;
9771;SDS011;4925;52.588;13.370;2023-06-24T06:18:58;8.30;;;7.50;;
9771;SDS011;4925;52.588;13.370;2023-06-24T06:21:24;9.63;;;7.03;;
9771;SDS011;4925;52.588;13.370;2023-06-24T06:23:50;11.25;;;7.20;;
9771;SDS011;4925;52.588;13.370;2023-06-24T06:26:16;10.05;;;6.55;;
9771;SDS011;4925;52.588;13.370;2023-06-24T06:28:41;8.32;;;7.47;;
9771;SDS011;4925;52.588;13.370;2023-06-24T06:31:07;8.25;;;6.97;;
9771;SDS011;4925;52.588;13.370;2023-06-24T06:33:33;7.35;;;6.65;;
9771;SDS011;4925;52.588;13.370;2023-06-24T06:35:59;9.20;;;6.07;;
9771;SDS011;4925;52.588;13.370;2023-06-24T06:38:24;8.13;;;6.38;;
9771;SDS011;4925;52.588;13.370;2023-06-24T06:40:50;10.27;;;6.93;;
9771;SDS011;4925;52.588;13.370;2023-06-24T06:43:16;8.25;;;7.13;;
9771;SDS011;4925;52.588;13.370;2023-06-24T06:45:41;8.82;;;7.45;;
9771;SDS011;4925;52.588;13.370;2023-06-24T06:48:07;9.73;;;7.65;;
9771;SDS011;4925;52.588;13.370;2023-06-24T06:50:33;8.73;;;7.57;;
9771;SDS011;4925;52.588;13.370;2023-06-24T06:52:59;10.98;;;7.97;;
9771;SDS011;4925;52.588;13.370;2023-06-24T06:55:26;8.85;;;6.90;;
9771;SDS011;4925;52.588;13.370;2023-06-24T06:57:52;10.32;;;7.68;;
9771;SDS011;4925;52.588;13.370;2023-06-24T07:00:18;8.60;;;6.72;;
9771;SDS011;4925;52.588;13.370;2023-06-24T07:02:44;14.77;;;7.82;;
9771;SDS011;4925;52.588;13.370;2023-06-24T07:05:09;9.18;;;6.00;;
9771;SDS011;4925;52.588;13.370;2023-06-24T07:07:39;7.07;;;5.95;;
9771;SDS011;4925;52.588;13.370;2023-06-24T07:10:05;6.85;;;6.18;;
9771;SDS011;4925;52.588;13.370;2023-06-24T07:12:31;8.30;;;5.95;;
9771;SDS011;4925;52.588;13.370;2023-06-24T07:14:57;7.97;;;6.40;;
9771;SDS011;4925;52.588;13.370;2023-06-24T07:17:22;8.52;;;6.78;;
9771;SDS011;4925;52.588;13.370;2023-06-24T07:19:48;7.28;;;6.18;;
9771;SDS011;4925;52.588;13.370;2023-06-24T07:22:14;7.82;;;6.80;;
9771;SDS011;4925;52.588;13.370;2023-06-24T07:24:40;11.60;;;7.15;;
9771;SDS011;4925;52.588;13.370;2023-06-24T07:27:06;9.48;;;7.10;;
9771;SDS011;4925;52.588;13.370;2023-06-24T07:29:32;9.95;;;6.70;;
9771;SDS011;4925;52.588;13.370;2023-06-24T07:31:58;8.07;;;5.80;;
9771;SDS011;4925;52.588;13.370;2023-06-24T07:34:24;7.68;;;5.43;;
9771;SDS011;4925;52.588;13.370;2023-06-24T07:36:50;5.57;;;5.00;;
9771;SDS011;4925;52.588;13.370;2023-06-24T07:39:16;7.68;;;4.43;;
9771;SDS011;4925;52.588;13.370;2023-06-24T07:41:42;7.45;;;4.63;;
9771;SDS011;4925;52.588;13.370;2023-06-24T07:44:08;5.93;;;4.60;;
9771;SDS011;4925;52.588;13.370;2023-06-24T07:46:34;5.53;;;4.38;;
9771;SDS011;4925;52.588;13.370;2023-06-24T07:49:00;5.32;;;4.78;;
9771;SDS011;4925;52.588;13.370;2023-06-24T07:51:25;5.97;;;4.70;;
9771;SDS011;4925;52.588;13.370;2023-06-24T07:53:52;7.72;;;5.35;;
9771;SDS011;4925;52.588;13.370;2023-06-24T07:56:17;5.45;;;4.82;;
9771;SDS011;4925;52.588;13.370;2023-06-24T07:58:43;10.05;;;5.38;;
9771;SDS011;4925;52.588;13.370;2023-06-24T08:01:09;5.88;;;5.07;;
9771;SDS011;4925;52.588;13.370;2023-06-24T08:03:35;5.68;;;5.15;;
9771;SDS011;4925;52.588;13.370;2023-06-24T08:06:04;6.57;;;5.22;;
9771;SDS011;4925;52.588;13.370;2023-06-24T08:08:29;7.40;;;4.65;;
9771;SDS011;4925;52.588;13.370;2023-06-24T08:10:55;5.00;;;4.50;;
9771;SDS011;4925;52.588;13.370;2023-06-24T08:13:21;7.55;;;5.28;;
9771;SDS011;4925;52.588;13.370;2023-06-24T08:15:47;7.07;;;5.38;;
9771;SDS011;4925;52.588;13.370;2023-06-24T08:18:12;7.25;;;5.05;;
9771;SDS011;4925;52.588;13.370;2023-06-24T08:20:38;5.45;;;4.85;;
9771;SDS011;4925;52.588;13.370;2023-06-24T08:23:03;7.00;;;4.55;;
9771;SDS011;4925;52.588;13.370;2023-06-24T08:28:13;5.00;;;4.60;;
9771;SDS011;4925;52.588;13.370;2023-06-24T08:30:58;5.72;;;4.57;;
9771;SDS011;4925;52.588;13.370;2023-06-24T08:33:45;4.03;;;3.72;;
9771;SDS011;4925;52.588;13.370;2023-06-24T08:36:11;4.95;;;4.47;;
9771;SDS011;4925;52.588;13.370;2023-06-24T08:38:37;6.05;;;4.53;;
9771;SDS011;4925;52.588;13.370;2023-06-24T08:41:02;5.18;;;4.57;;
9771;SDS011;4925;52.588;13.370;2023-06-24T08:43:28;4.95;;;4.43;;
9771;SDS011;4925;52.588;13.370;2023-06-24T08:45:53;4.63;;;4.15;;
9771;SDS011;4925;52.588;13.370;2023-06-24T08:51:07;6.13;;;4.25;;
9771;SDS011;4925;52.588;13.370;2023-06-24T08:53:34;7.32;;;3.97;;
9771;SDS011;4925;52.588;13.370;2023-06-24T08:56:03;5.13;;;4.10;;
9771;SDS011;4925;52.588;13.370;2023-06-24T08:58:29;5.97;;;4.13;;
9771;SDS011;4925;52.588;13.370;2023-06-24T09:00:55;4.78;;;4.35;;
9771;SDS011;4925;52.588;13.370;2023-06-24T09:03:21;4.88;;;4.38;;
9771;SDS011;4925;52.588;13.370;2023-06-24T09:05:47;6.07;;;5.57;;
9771;SDS011;4925;52.588;13.370;2023-06-24T09:08:13;7.25;;;4.82;;
9771;SDS011;4925;52.588;13.370;2023-06-24T09:10:41;4.50;;;4.10;;
9771;SDS011;4925;52.588;13.370;2023-06-24T09:13:06;6.25;;;4.85;;
9771;SDS011;4925;52.588;13.370;2023-06-24T09:15:33;7.85;;;4.68;;
9771;SDS011;4925;52.588;13.370;2023-06-24T09:17:59;5.65;;;5.10;;
9771;SDS011;4925;52.588;13.370;2023-06-24T09:20:27;5.20;;;4.70;;
9771;SDS011;4925;52.588;13.370;2023-06-24T09:23:02;4.32;;;3.75;;
9771;SDS011;4925;52.588;13.370;2023-06-24T09:25:28;5.47;;;4.43;;
9771;SDS011;4925;52.588;13.370;2023-06-24T09:27:58;9.25;;;4.32;;
9771;SDS011;4925;52.588;13.370;2023-06-24T09:30:27;7.80;;;4.32;;
9771;SDS011;4925;52.588;13.370;2023-06-24T09:32:53;5.60;;;4.28;;
9771;SDS011;4925;52.588;13.370;2023-06-24T09:35:20;5.88;;;4.30;;
9771;SDS011;4925;52.588;13.370;2023-06-24T09:37:50;6.57;;;3.75;;
9771;SDS011;4925;52.588;13.370;2023-06-24T09:40:16;6.85;;;3.85;;
9771;SDS011;4925;52.588;13.370;2023-06-24T09:42:49;4.22;;;3.22;;
9771;SDS011;4925;52.588;13.370;2023-06-24T09:45:24;4.78;;;3.80;;
9771;SDS011;4925;52.588;13.370;2023-06-24T09:47:52;3.83;;;3.53;;
9771;SDS011;4925;52.588;13.370;2023-06-24T09:50:18;8.98;;;4.20;;
9771;SDS011;4925;52.588;13.370;2023-06-24T09:52:44;7.25;;;4.15;;
9771;SDS011;4925;52.588;13.370;2023-06-24T09:55:13;7.97;;;3.58;;
9771;SDS011;4925;52.588;13.370;2023-06-24T09:57:41;3.33;;;3.13;;
9771;SDS011;4925;52.588;13.370;2023-06-24T10:00:14;7.63;;;3.85;;
9771;SDS011;4925;52.588;13.370;2023-06-24T10:02:41;4.57;;;3.80;;
9771;SDS011;4925;52.588;13.370;2023-06-24T10:05:08;4.32;;;3.50;;
9771;SDS011;4925;52.588;13.370;2023-06-24T10:07:35;3.83;;;3.53;;
9771;SDS011;4925;52.588;13.370;2023-06-24T10:10:05;4.38;;;3.10;;
9771;SDS011;4925;52.588;13.370;2023-06-24T10:12:31;6.20;;;3.47;;
9771;SDS011;4925;52.588;13.370;2023-06-24T10:14:59;4.00;;;3.65;;
9771;SDS011;4925;52.588;13.370;2023-06-24T10:17:25;3.45;;;3.13;;
9771;SDS011;4925;52.588;13.370;2023-06-24T10:19:51;5.72;;;3.45;;
9771;SDS011;4925;52.588;13.370;2023-06-24T10:22:21;4.35;;;3.65;;
9771;SDS011;4925;52.588;13.370;2023-06-24T10:24:52;6.68;;;3.65;;
9771;SDS011;4925;52.588;13.370;2023-06-24T10:27:18;5.80;;;3.20;;
9771;SDS011;4925;52.588;13.370;2023-06-24T10:29:49;4.28;;;3.45;;
9771;SDS011;4925;52.588;13.370;2023-06-24T10:32:15;3.65;;;3.17;;
9771;SDS011;4925;52.588;13.370;2023-06-24T10:34:46;3.40;;;3.10;;
9771;SDS011;4925;52.588;13.370;2023-06-24T10:39:49;5.75;;;3.63;;
9771;SDS011;4925;52.588;13.370;2023-06-24T10:42:38;4.75;;;3.13;;
9771;SDS011;4925;52.588;13.370;2023-06-24T10:47:36;4.10;;;3.80;;
9771;SDS011;4925;52.588;13.370;2023-06-24T10:50:04;9.68;;;3.70;;
9771;SDS011;4925;52.588;13.370;2023-06-24T10:52:30;4.03;;;3.63;;
9771;SDS011;4925;52.588;13.370;2023-06-24T10:54:56;4.93;;;3.90;;
9771;SDS011;4925;52.588;13.370;2023-06-24T10:57:26;13.30;;;3.72;;
9771;SDS011;4925;52.588;13.370;2023-06-24T10:59:54;3.92;;;3.40;;
9771;SDS011;4925;52.588;13.370;2023-06-24T11:02:21;8.93;;;3.78;;
9771;SDS011;4925;52.588;13.370;2023-06-24T11:04:49;4.85;;;3.38;;
9771;SDS011;4925;52.588;13.370;2023-06-24T11:07:23;8.43;;;3.35;;
9771;SDS011;4925;52.588;13.370;2023-06-24T11:09:50;3.92;;;3.58;;
9771;SDS011;4925;52.588;13.370;2023-06-24T11:12:18;3.80;;;3.58;;
9771;SDS011;4925;52.588;13.370;2023-06-24T11:14:44;3.70;;;3.40;;
9771;SDS011;4925;52.588;13.370;2023-06-24T11:17:10;5.63;;;4.00;;
9771;SDS011;4925;52.588;13.370;2023-06-24T11:19:36;4.32;;;3.83;;
9771;SDS011;4925;52.588;13.370;2023-06-24T11:22:04;4.03;;;3.25;;
9771;SDS011;4925;52.588;13.370;2023-06-24T11:24:31;4.30;;;3.20;;
9771;SDS011;4925;52.588;13.370;2023-06-24T11:26:57;4.65;;;3.28;;
9771;SDS011;4925;52.588;13.370;2023-06-24T11:29:23;3.25;;;3.05;;
9771;SDS011;4925;52.588;13.370;2023-06-24T11:31:49;6.38;;;4.10;;
9771;SDS011;4925;52.588;13.370;2023-06-24T11:34:15;5.10;;;4.10;;
9771;SDS011;4925;52.588;13.370;2023-06-24T11:36:41;10.85;;;4.20;;
9771;SDS011;4925;52.588;13.370;2023-06-24T11:39:07;4.00;;;3.60;;
9771;SDS011;4925;52.588;13.370;2023-06-24T11:41:33;5.90;;;3.72;;
9771;SDS011;4925;52.588;13.370;2023-06-24T11:43:59;6.10;;;3.58;;
9771;SDS011;4925;52.588;13.370;2023-06-24T11:46:28;4.43;;;3.47;;
9771;SDS011;4925;52.588;13.370;2023-06-24T11:49:06;3.90;;;3.15;;
9771;SDS011;4925;52.588;13.370;2023-06-24T11:51:33;3.70;;;3.40;;
9771;SDS011;4925;52.588;13.370;2023-06-24T11:54:03;3.38;;;3.05;;
9771;SDS011;4925;52.588;13.370;2023-06-24T11:56:40;4.35;;;3.33;;
9771;SDS011;4925;52.588;13.370;2023-06-24T11:59:07;3.78;;;3.42;;
9771;SDS011;4925;52.588;13.370;2023-06-24T12:01:43;4.03;;;3.38;;
9771;SDS011;4925;52.588;13.370;2023-06-24T12:04:13;3.70;;;3.33;;
9771;SDS011;4925;52.588;13.370;2023-06-24T12:06:39;3.63;;;3.42;;
9771;SDS011;4925;52.588;13.370;2023-06-24T12:09:06;4.45;;;4.03;;
9771;SDS011;4925;52.588;13.370;2023-06-24T12:11:33;4.25;;;3.70;;
9771;SDS011;4925;52.588;13.370;2023-06-24T12:13:58;6.97;;;3.38;;
9771;SDS011;4925;52.588;13.370;2023-06-24T12:16:24;4.65;;;3.13;;
9771;SDS011;4925;52.588;13.370;2023-06-24T12:18:51;3.90;;;3.60;;
9771;SDS011;4925;52.588;13.370;2023-06-24T12:21:17;5.60;;;3.95;;
9771;SDS011;4925;52.588;13.370;2023-06-24T12:23:43;4.22;;;3.58;;
9771;SDS011;4925;52.588;13.370;2023-06-24T12:26:09;4.53;;;4.13;;
9771;SDS011;4925;52.588;13.370;2023-06-24T12:28:35;5.97;;;3.83;;
9771;SDS011;4925;52.588;13.370;2023-06-24T12:31:00;4.43;;;4.03;;
9771;SDS011;4925;52.588;13.370;2023-06-24T12:33:26;6.93;;;3.90;;
9771;SDS011;4925;52.588;13.370;2023-06-24T12:35:52;3.80;;;3.50;;
9771;SDS011;4925;52.588;13.370;2023-06-24T12:38:17;4.45;;;4.10;;
9771;SDS011;4925;52.588;13.370;2023-06-24T12:40:43;4.75;;;4.35;;
9771;SDS011;4925;52.588;13.370;2023-06-24T12:43:10;4.38;;;3.97;;
9771;SDS011;4925;52.588;13.370;2023-06-24T12:45:36;4.78;;;3.50;;
9771;SDS011;4925;52.588;13.370;2023-06-24T12:48:08;4.45;;;4.00;;
9771;SDS011;4925;52.588;13.370;2023-06-24T12:50:34;5.88;;;4.13;;
9771;SDS011;4925;52.588;13.370;2023-06-24T12:53:00;4.85;;;3.92;;
9771;SDS011;4925;52.588;13.370;2023-06-24T12:55:27;4.00;;;3.70;;
9771;SDS011;4925;52.588;13.370;2023-06-24T12:57:53;4.20;;;3.80;;
9771;SDS011;4925;52.588;13.370;2023-06-24T13:00:20;4.22;;;3.83;;
9771;SDS011;4925;52.588;13.370;2023-06-24T13:02:46;9.32;;;4.00;;
9771;SDS011;4925;52.588;13.370;2023-06-24T13:05:12;6.75;;;3.55;;
9771;SDS011;4925;52.588;13.370;2023-06-24T13:07:37;4.82;;;3.92;;
9771;SDS011;4925;52.588;13.370;2023-06-24T13:10:03;6.30;;;4.13;;
9771;SDS011;4925;52.588;13.370;2023-06-24T13:12:31;5.65;;;4.10;;
9771;SDS011;4925;52.588;13.370;2023-06-24T13:14:57;4.18;;;3.70;;
9771;SDS011;4925;52.588;13.370;2023-06-24T13:17:23;5.70;;;3.90;;
9771;SDS011;4925;52.588;13.370;2023-06-24T13:19:49;4.18;;;3.88;;
9771;SDS011;4925;52.588;13.370;2023-06-24T13:22:16;5.47;;;3.85;;
9771;SDS011;4925;52.588;13.370;2023-06-24T13:24:42;6.15;;;4.20;;
9771;SDS011;4925;52.588;13.370;2023-06-24T13:27:08;4.25;;;3.85;;
9771;SDS011;4925;52.588;13.370;2023-06-24T13:29:34;4.00;;;3.72;;
9771;SDS011;4925;52.588;13.370;2023-06-24T13:31:59;3.65;;;3.35;;
9771;SDS011;4925;52.588;13.370;2023-06-24T13:34:25;4.90;;;4.03;;
9771;SDS011;4925;52.588;13.370;2023-06-24T13:36:51;8.52;;;3.70;;
9771;SDS011;4925;52.588;13.370;2023-06-24T13:39:16;7.75;;;3.78;;
9771;SDS011;4925;52.588;13.370;2023-06-24T13:41:46;4.57;;;4.20;;
9771;SDS011;4925;52.588;13.370;2023-06-24T13:44:11;4.72;;;4.30;;
9771;SDS011;4925;52.588;13.370;2023-06-24T13:46:37;5.20;;;3.78;;
9771;SDS011;4925;52.588;13.370;2023-06-24T13:49:03;6.25;;;3.80;;
9771;SDS011;4925;52.588;13.370;2023-06-24T13:51:28;4.28;;;3.88;;
9771;SDS011;4925;52.588;13.370;2023-06-24T13:53:54;4.25;;;3.50;;
9771;SDS011;4925;52.588;13.370;2023-06-24T13:56:21;6.40;;;4.13;;
9771;SDS011;4925;52.588;13.370;2023-06-24T13:58:49;4.28;;;3.90;;
9771;SDS011;4925;52.588;13.370;2023-06-24T14:01:15;4.15;;;3.80;;
9771;SDS011;4925;52.588;13.370;2023-06-24T14:03:41;5.35;;;3.85;;
9771;SDS011;4925;52.588;13.370;2023-06-24T14:06:08;4.25;;;3.85;;
9771;SDS011;4925;52.588;13.370;2023-06-24T14:08:34;4.10;;;3.70;;
9771;SDS011;4925;52.588;13.370;2023-06-24T14:11:00;4.85;;;3.65;;
9771;SDS011;4925;52.588;13.370;2023-06-24T14:13:27;4.57;;;3.58;;
9771;SDS011;4925;52.588;13.370;2023-06-24T14:15:54;4.45;;;4.05;;
9771;SDS011;4925;52.588;13.370;2023-06-24T14:18:20;5.40;;;4.15;;
9771;SDS011;4925;52.588;13.370;2023-06-24T14:20:46;4.13;;;3.75;;
9771;SDS011;4925;52.588;13.370;2023-06-24T14:23:12;6.97;;;3.97;;
9771;SDS011;4925;52.588;13.370;2023-06-24T14:25:38;7.07;;;4.38;;
9771;SDS011;4925;52.588;13.370;2023-06-24T14:28:04;5.13;;;4.05;;
9771;SDS011;4925;52.588;13.370;2023-06-24T14:30:30;4.03;;;3.72;;
9771;SDS011;4925;52.588;13.370;2023-06-24T14:32:56;5.93;;;4.25;;
9771;SDS011;4925;52.588;13.370;2023-06-24T14:35:22;5.25;;;3.85;;
9771;SDS011;4925;52.588;13.370;2023-06-24T14:37:48;4.47;;;4.05;;
9771;SDS011;4925;52.588;13.370;2023-06-24T14:40:14;4.03;;;3.75;;
9771;SDS011;4925;52.588;13.370;2023-06-24T14:42:39;4.10;;;3.80;;
9771;SDS011;4925;52.588;13.370;2023-06-24T14:45:05;4.43;;;3.33;;
9771;SDS011;4925;52.588;13.370;2023-06-24T14:47:31;4.30;;;4.00;;
9771;SDS011;4925;52.588;13.370;2023-06-24T14:49:57;7.15;;;4.65;;
9771;SDS011;4925;52.588;13.370;2023-06-24T14:52:22;4.80;;;4.40;;
9771;SDS011;4925;52.588;13.370;2023-06-24T14:54:48;4.85;;;4.20;;
9771;SDS011;4925;52.588;13.370;2023-06-24T14:57:16;4.72;;;3.97;;
9771;SDS011;4925;52.588;13.370;2023-06-24T14:59:42;4.38;;;3.97;;
9771;SDS011;4925;52.588;13.370;2023-06-24T15:02:07;4.30;;;4.00;;
9771;SDS011;4925;52.588;13.370;2023-06-24T15:04:35;4.07;;;3.67;;
9771;SDS011;4925;52.588;13.370;2023-06-24T15:07:01;6.57;;;4.30;;
9771;SDS011;4925;52.588;13.370;2023-06-24T15:09:26;4.47;;;4.07;;
9771;SDS011;4925;52.588;13.370;2023-06-24T15:11:52;5.68;;;4.13;;
9771;SDS011;4925;52.588;13.370;2023-06-24T15:14:18;5.05;;;4.50;;